Time;durP1;ratioP1;P1;durP2;ratioP2;P2;SDS_P1;SDS_P2;PMS_P1;PMS_P2;Temp;Humidity;BMP_temperature;BMP_pressure;BME280_temperature;BME280_humidity;BME280_pressure;Samples;Min_cycle;Max_cycle;Signal;HPM_P1;HPM_P2
2023/07/08 00:02:10;;;;;;;7.75;6.78;;;;;;;;;;5144271;27;20550;-70
2023/07/08 00:04:37;;;;;;;6.53;5.93;;;;;;;;;;5144129;27;20198;-70
2023/07/08 00:07:05;;;;;;;9.98;6.95;;;;;;;;;;5144540;27;20194;-70
2023/07/08 00:09:31;;;;;;;11.63;7.30;;;;;;;;;;5144209;27;20387;-70
2023/07/08 00:11:58;;;;;;;9.50;6.57;;;;;;;;;;5144411;27;20501;-70
2023/07/08 00:14:24;;;;;;;10.18;7.30;;;;;;;;;;5144008;27;20206;-70
2023/07/08 00:16:50;;;;;;;7.47;6.60;;;;;;;;;;5143597;27;20570;-70
2023/07/08 00:19:19;;;;;;;7.53;6.75;;;;;;;;;;5143985;27;20501;-70
2023/07/08 00:21:45;;;;;;;9.25;7.80;;;;;;;;;;5143992;27;20510;-71
2023/07/08 00:24:13;;;;;;;10.70;7.93;;;;;;;;;;5143974;27;20424;-70
2023/07/08 00:26:39;;;;;;;9.68;8.15;;;;;;;;;;5143872;27;20524;-70
2023/07/08 00:29:09;;;;;;;11.20;8.68;;;;;;;;;;5143582;27;20268;-70
2023/07/08 00:31:35;;;;;;;9.40;8.23;;;;;;;;;;5143765;27;20509;-70
2023/07/08 00:34:03;;;;;;;11.07;8.38;;;;;;;;;;5143573;27;20194;-70
2023/07/08 00:36:29;;;;;;;9.07;7.50;;;;;;;;;;5143924;27;20228;-70
2023/07/08 00:38:56;;;;;;;9.00;7.50;;;;;;;;;;5143671;27;20190;-70
2023/07/08 00:41:25;;;;;;;7.90;7.10;;;;;;;;;;5143586;27;20216;-70
2023/07/08 00:43:53;;;;;;;10.10;7.03;;;;;;;;;;5143643;27;20429;-70
2023/07/08 00:46:25;;;;;;;7.30;6.53;;;;;;;;;;5143567;27;20525;-70
2023/07/08 00:48:53;;;;;;;8.88;6.22;;;;;;;;;;5143586;27;20279;-70
2023/07/08 00:51:20;;;;;;;7.57;6.70;;;;;;;;;;5143288;27;20198;-70
2023/07/08 00:53:46;;;;;;;6.93;6.22;;;;;;;;;;5143500;27;20193;-70
2023/07/08 00:56:13;;;;;;;6.93;5.63;;;;;;;;;;5143330;27;20502;-70
2023/07/08 00:58:44;;;;;;;6.93;5.90;;;;;;;;;;5143297;27;20217;-70
2023/07/08 01:01:10;;;;;;;6.50;5.90;;;;;;;;;;5143002;27;20210;-70
2023/07/08 01:03:39;;;;;;;6.88;6.18;;;;;;;;;;5143668;27;20194;-70
2023/07/08 01:06:06;;;;;;;6.82;6.18;;;;;;;;;;5143329;27;20394;-70
2023/07/08 01:08:32;;;;;;;8.35;6.05;;;;;;;;;;5143106;27;20210;-70
2023/07/08 01:11:01;;;;;;;7.55;6.20;;;;;;;;;;5143171;27;20199;-70
2023/07/08 01:13:28;;;;;;;8.77;6.70;;;;;;;;;;5142917;27;20270;-71
2023/07/08 01:15:56;;;;;;;8.55;6.50;;;;;;;;;;5143021;27;20198;-71
2023/07/08 01:18:24;;;;;;;6.75;6.05;;;;;;;;;;5143053;27;20191;-71
2023/07/08 01:20:50;;;;;;;6.72;6.03;;;;;;;;;;5143129;27;20386;-71
2023/07/08 01:23:18;;;;;;;8.43;6.32;;;;;;;;;;5142770;27;20190;-70
2023/07/08 01:25:46;;;;;;;8.52;6.72;;;;;;;;;;5142897;27;20258;-70
2023/07/08 01:28:12;;;;;;;7.00;6.30;;;;;;;;;;5143699;27;20229;-70
2023/07/08 01:30:41;;;;;;;8.57;6.22;;;;;;;;;;5147055;27;20200;-70
2023/07/08 01:33:11;;;;;;;7.30;5.75;;;;;;;;;;5147100;27;20194;-70
2023/07/08 01:35:38;;;;;;;7.65;6.13;;;;;;;;;;5147001;27;20202;-70
2023/07/08 01:38:06;;;;;;;6.82;6.05;;;;;;;;;;5147363;27;20225;-70
2023/07/08 01:40:35;;;;;;;7.15;6.07;;;;;;;;;;5147126;27;20198;-70
2023/07/08 01:43:02;;;;;;;7.15;6.00;;;;;;;;;;5146766;27;20194;-70
2023/07/08 01:45:30;;;;;;;6.18;5.38;;;;;;;;;;5146842;27;20195;-70
2023/07/08 01:47:58;;;;;;;6.90;6.15;;;;;;;;;;5146809;27;20231;-70
2023/07/08 01:50:25;;;;;;;7.55;6.18;;;;;;;;;;5146851;27;20195;-70
2023/07/08 01:52:52;;;;;;;6.63;6.00;;;;;;;;;;5146865;27;20201;-70
2023/07/08 01:55:21;;;;;;;6.50;5.80;;;;;;;;;;5146701;27;20194;-70
2023/07/08 01:57:51;;;;;;;7.15;6.15;;;;;;;;;;5146736;27;20195;-70
2023/07/08 02:00:17;;;;;;;7.88;6.45;;;;;;;;;;5146638;27;20211;-70
2023/07/08 02:02:43;;;;;;;6.18;5.55;;;;;;;;;;5146557;27;20501;-70
2023/07/08 02:05:10;;;;;;;6.65;5.95;;;;;;;;;;5146770;27;20420;-70
2023/07/08 02:07:36;;;;;;;6.97;5.93;;;;;;;;;;5146554;27;20392;-70
2023/07/08 02:10:02;;;;;;;7.68;6.03;;;;;;;;;;5146418;27;20224;-70
2023/07/08 02:12:29;;;;;;;9.00;6.18;;;;;;;;;;5146384;27;20194;-70
2023/07/08 02:14:56;;;;;;;6.32;5.60;;;;;;;;;;5146345;27;20283;-70
2023/07/08 02:17:23;;;;;;;9.10;6.05;;;;;;;;;;5146207;27;20216;-70
2023/07/08 02:19:49;;;;;;;6.93;6.20;;;;;;;;;;5146461;27;20190;-70
2023/07/08 02:22:15;;;;;;;7.72;6.07;;;;;;;;;;5146389;27;20494;-70
2023/07/08 02:24:41;;;;;;;7.43;6.10;;;;;;;;;;5146284;27;20410;-70
2023/07/08 02:27:08;;;;;;;8.77;7.00;;;;;;;;;;5146177;27;20486;-70
2023/07/08 02:29:34;;;;;;;7.10;6.10;;;;;;;;;;5145949;27;20210;-70
2023/07/08 02:32:01;;;;;;;6.20;5.60;;;;;;;;;;5145715;27;20195;-70
2023/07/08 02:34:28;;;;;;;7.57;6.47;;;;;;;;;;5146080;27;20201;-70
2023/07/08 02:36:56;;;;;;;7.57;5.85;;;;;;;;;;5146097;27;20201;-70
2023/07/08 02:39:22;;;;;;;9.40;6.13;;;;;;;;;;5145693;27;20212;-70
2023/07/08 02:41:48;;;;;;;6.13;5.55;;;;;;;;;;5145445;27;20258;-70
2023/07/08 02:44:15;;;;;;;8.20;6.25;;;;;;;;;;5145794;27;20385;-70
2023/07/08 02:46:41;;;;;;;9.07;6.60;;;;;;;;;;5145807;27;20206;-70
2023/07/08 02:49:08;;;;;;;6.50;5.90;;;;;;;;;;5145836;27;20559;-70
2023/07/08 02:51:35;;;;;;;7.78;6.13;;;;;;;;;;5145701;27;20198;-70
2023/07/08 02:54:01;;;;;;;6.57;5.97;;;;;;;;;;5145426;27;20558;-70
2023/07/08 02:56:27;;;;;;;6.75;6.05;;;;;;;;;;5145703;27;20202;-70
2023/07/08 02:58:54;;;;;;;6.63;5.50;;;;;;;;;;5145249;27;20190;-70
2023/07/08 03:01:20;;;;;;;10.85;6.25;;;;;;;;;;5145287;27;20195;-70
2023/07/08 03:03:47;;;;;;;6.72;6.00;;;;;;;;;;5145540;27;20194;-70
2023/07/08 03:06:15;;;;;;;8.57;6.28;;;;;;;;;;5145527;27;20210;-70
2023/07/08 03:08:41;;;;;;;7.63;5.65;;;;;;;;;;5145316;27;20547;-70
2023/07/08 03:11:08;;;;;;;8.30;6.30;;;;;;;;;;5145377;27;20202;-70
2023/07/08 03:13:35;;;;;;;9.25;6.53;;;;;;;;;;5144968;27;20194;-70
2023/07/08 03:16:02;;;;;;;8.07;6.57;;;;;;;;;;5145352;27;20202;-70
2023/07/08 03:18:29;;;;;;;8.20;6.30;;;;;;;;;;5145335;27;20213;-70
2023/07/08 03:20:56;;;;;;;8.82;6.53;;;;;;;;;;5145264;27;20195;-70
2023/07/08 03:23:24;;;;;;;11.70;7.20;;;;;;;;;;5145095;27;20202;-70
2023/07/08 03:25:50;;;;;;;9.90;6.97;;;;;;;;;;5145122;27;20202;-70
2023/07/08 03:28:17;;;;;;;10.15;7.18;;;;;;;;;;5144733;27;20404;-70
2023/07/08 03:30:43;;;;;;;10.63;7.43;;;;;;;;;;5145157;27;20303;-70
2023/07/08 03:33:10;;;;;;;10.30;7.72;;;;;;;;;;5144764;27;20191;-70
2023/07/08 03:35:38;;;;;;;9.98;7.53;;;;;;;;;;5145209;27;20194;-70
2023/07/08 03:38:05;;;;;;;10.13;7.63;;;;;;;;;;5144712;27;20198;-70
2023/07/08 03:40:32;;;;;;;10.68;7.75;;;;;;;;;;5144662;27;20202;-70
2023/07/08 03:42:59;;;;;;;8.27;6.90;;;;;;;;;;5144496;27;20194;-70
2023/07/08 03:45:26;;;;;;;10.02;7.10;;;;;;;;;;5144699;27;20198;-70
2023/07/08 03:47:52;;;;;;;9.07;6.97;;;;;;;;;;5144607;27;20205;-70
2023/07/08 03:50:20;;;;;;;9.98;6.55;;;;;;;;;;5144553;27;20221;-70
2023/07/08 03:52:46;;;;;;;8.73;7.10;;;;;;;;;;5143380;27;20195;-70
2023/07/08 03:55:12;;;;;;;7.07;6.30;;;;;;;;;;5144797;27;20357;-70
2023/07/08 03:57:40;;;;;;;8.52;6.63;;;;;;;;;;5144554;27;20202;-70
2023/07/08 04:00:09;;;;;;;8.05;6.88;;;;;;;;;;5144237;27;20205;-70
2023/07/08 04:02:35;;;;;;;9.27;6.85;;;;;;;;;;5144142;27;20226;-70
2023/07/08 04:05:01;;;;;;;10.82;7.38;;;;;;;;;;5144307;27;20506;-70
2023/07/08 04:07:27;;;;;;;9.63;6.25;;;;;;;;;;5144184;27;20205;-70
2023/07/08 04:09:54;;;;;;;8.30;6.75;;;;;;;;;;5143966;27;20214;-70
2023/07/08 04:12:20;;;;;;;8.75;7.47;;;;;;;;;;5144273;27;20206;-70
2023/07/08 04:14:48;;;;;;;8.00;6.50;;;;;;;;;;5144117;27;20516;-70
2023/07/08 04:17:15;;;;;;;7.05;6.15;;;;;;;;;;5145524;27;20202;-71
2023/07/08 04:19:43;;;;;;;7.57;6.85;;;;;;;;;;5145834;27;20190;-71
2023/07/08 04:22:10;;;;;;;7.78;6.30;;;;;;;;;;5146041;27;20198;-71
2023/07/08 04:24:37;;;;;;;11.40;6.93;;;;;;;;;;5145784;27;20194;-71
2023/07/08 04:27:04;;;;;;;8.30;6.53;;;;;;;;;;5146111;27;20525;-71
2023/07/08 04:29:30;;;;;;;13.25;7.40;;;;;;;;;;5146077;27;20345;-71
2023/07/08 04:31:58;;;;;;;11.40;6.65;;;;;;;;;;5146330;27;20194;-71
2023/07/08 04:34:24;;;;;;;8.05;6.72;;;;;;;;;;5146254;27;20198;-71
2023/07/08 04:36:50;;;;;;;7.85;6.70;;;;;;;;;;5146630;27;20258;-71
2023/07/08 04:39:17;;;;;;;7.03;6.32;;;;;;;;;;5146523;27;20198;-71
2023/07/08 04:41:43;;;;;;;8.48;6.70;;;;;;;;;;5146526;27;20201;-71
2023/07/08 04:44:10;;;;;;;7.82;6.57;;;;;;;;;;5146356;27;20502;-71
2023/07/08 04:46:38;;;;;;;7.15;6.32;;;;;;;;;;5146472;27;20198;-71
2023/07/08 04:49:07;;;;;;;8.52;6.95;;;;;;;;;;5145795;27;20294;-71
2023/07/08 04:51:33;;;;;;;9.35;6.85;;;;;;;;;;5145974;27;20201;-71
2023/07/08 04:54:00;;;;;;;7.75;6.95;;;;;;;;;;5146529;27;20194;-71
2023/07/08 04:56:26;;;;;;;8.90;6.63;;;;;;;;;;5146279;27;20494;-71
2023/07/08 04:58:52;;;;;;;7.60;6.82;;;;;;;;;;5146538;27;20195;-71
2023/07/08 05:01:18;;;;;;;11.43;6.88;;;;;;;;;;5146324;27;20182;-71
2023/07/08 05:03:45;;;;;;;7.57;6.70;;;;;;;;;;5146345;27;20502;-71
2023/07/08 05:06:12;;;;;;;7.85;6.50;;;;;;;;;;5146402;27;20465;-71
2023/07/08 05:08:39;;;;;;;9.35;6.43;;;;;;;;;;5146476;27;20201;-71
2023/07/08 05:11:05;;;;;;;8.15;6.47;;;;;;;;;;5146383;27;20222;-71
2023/07/08 05:13:32;;;;;;;12.75;8.27;;;;;;;;;;5146783;27;20194;-71
2023/07/08 05:15:58;;;;;;;16.85;7.97;;;;;;;;;;5146410;27;20228;-71
2023/07/08 05:18:24;;;;;;;9.88;7.45;;;;;;;;;;5146996;27;20200;-71
2023/07/08 05:20:51;;;;;;;10.20;7.25;;;;;;;;;;5147355;27;20198;-71
2023/07/08 05:23:18;;;;;;;10.30;6.85;;;;;;;;;;5146242;27;20233;-71
2023/07/08 05:25:45;;;;;;;13.13;6.78;;;;;;;;;;5145921;27;20190;-71
2023/07/08 05:28:11;;;;;;;8.80;7.00;;;;;;;;;;5146254;27;20214;-71
2023/07/08 05:30:37;;;;;;;10.20;6.88;;;;;;;;;;5146139;27;20213;-71
2023/07/08 05:33:03;;;;;;;11.55;7.05;;;;;;;;;;5145623;27;20706;-71
2023/07/08 05:35:30;;;;;;;11.77;7.57;;;;;;;;;;5146210;27;20375;-71
2023/07/08 05:37:56;;;;;;;11.45;7.13;;;;;;;;;;5145838;27;20198;-71
2023/07/08 05:40:24;;;;;;;10.98;7.07;;;;;;;;;;5145606;27;20195;-71
2023/07/08 05:42:50;;;;;;;13.85;7.03;;;;;;;;;;5145608;27;20195;-71
2023/07/08 05:45:16;;;;;;;9.40;6.70;;;;;;;;;;5145369;27;20528;-71
2023/07/08 05:47:42;;;;;;;12.57;6.30;;;;;;;;;;5145459;27;20200;-71
2023/07/08 05:50:09;;;;;;;7.75;6.65;;;;;;;;;;5145239;27;20210;-71
2023/07/08 05:52:35;;;;;;;10.00;6.60;;;;;;;;;;5145374;27;20201;-71
2023/07/08 05:55:02;;;;;;;7.50;6.07;;;;;;;;;;5146171;27;20199;-71
2023/07/08 05:57:29;;;;;;;11.10;6.40;;;;;;;;;;5145687;27;20473;-71
2023/07/08 05:59:55;;;;;;;7.70;6.28;;;;;;;;;;5146110;27;20205;-71
2023/07/08 06:02:25;;;;;;;7.35;6.15;;;;;;;;;;5146513;27;20209;-71
2023/07/08 06:04:51;;;;;;;7.90;6.03;;;;;;;;;;5145685;27;20402;-71
2023/07/08 06:07:17;;;;;;;9.88;6.70;;;;;;;;;;5146013;27;20195;-71
2023/07/08 06:09:44;;;;;;;9.20;6.47;;;;;;;;;;5145740;27;20214;-71
2023/07/08 06:12:10;;;;;;;9.38;6.38;;;;;;;;;;5145804;27;20208;-71
2023/07/08 06:14:39;;;;;;;11.05;7.43;;;;;;;;;;5145766;27;20194;-71
2023/07/08 06:17:05;;;;;;;9.10;7.20;;;;;;;;;;5149467;27;20430;-71
2023/07/08 06:19:31;;;;;;;10.20;6.85;;;;;;;;;;5149379;27;20190;-71
2023/07/08 06:21:58;;;;;;;8.45;6.38;;;;;;;;;;5149267;27;20258;-71
2023/07/08 06:24:24;;;;;;;7.50;6.03;;;;;;;;;;5149878;27;20200;-71
2023/07/08 06:26:50;;;;;;;9.82;6.55;;;;;;;;;;5150030;27;20200;-71
2023/07/08 06:29:19;;;;;;;7.45;6.30;;;;;;;;;;5149015;27;20202;-71
2023/07/08 06:31:46;;;;;;;11.85;6.70;;;;;;;;;;5149463;27;20317;-71
2023/07/08 06:34:13;;;;;;;9.98;7.03;;;;;;;;;;5149620;27;20201;-71
2023/07/08 06:36:39;;;;;;;8.18;6.63;;;;;;;;;;5149693;27;20194;-71
2023/07/08 06:39:07;;;;;;;8.07;6.55;;;;;;;;;;5149960;27;20490;-71
2023/07/08 06:41:34;;;;;;;9.88;7.22;;;;;;;;;;5148945;27;20260;-72
2023/07/08 06:44:00;;;;;;;7.60;6.45;;;;;;;;;;5149303;27;20201;-72
2023/07/08 06:46:26;;;;;;;9.05;6.30;;;;;;;;;;5149761;27;20194;-71
2023/07/08 06:48:54;;;;;;;10.13;6.75;;;;;;;;;;5147565;27;20217;-58
2023/07/08 06:51:20;;;;;;;8.95;6.53;;;;;;;;;;5145583;27;20224;-58
2023/07/08 06:53:47;;;;;;;7.85;6.45;;;;;;;;;;5145856;27;20201;-58
2023/07/08 06:56:13;;;;;;;13.68;7.00;;;;;;;;;;5145686;27;20270;-58
2023/07/08 06:58:39;;;;;;;12.15;6.78;;;;;;;;;;5145765;27;20392;-58
2023/07/08 07:01:06;;;;;;;9.90;6.72;;;;;;;;;;5145629;27;20247;-58
2023/07/08 07:03:32;;;;;;;9.07;7.32;;;;;;;;;;5145458;27;20190;-58
2023/07/08 07:05:59;;;;;;;8.38;6.25;;;;;;;;;;5145757;27;20458;-59
2023/07/08 07:08:26;;;;;;;8.63;6.60;;;;;;;;;;5145654;27;20498;-59
2023/07/08 07:10:52;;;;;;;11.85;7.30;;;;;;;;;;5145398;27;20213;-59
2023/07/08 07:13:18;;;;;;;8.88;6.75;;;;;;;;;;5145286;27;20273;-59
2023/07/08 07:15:44;;;;;;;7.65;6.68;;;;;;;;;;5145368;27;20198;-57
2023/07/08 07:18:11;;;;;;;8.13;6.95;;;;;;;;;;5145534;27;20194;-58
2023/07/08 07:20:38;;;;;;;8.60;6.40;;;;;;;;;;5145522;27;20266;-59
2023/07/08 07:23:05;;;;;;;8.52;7.10;;;;;;;;;;5145609;27;20417;-58
2023/07/08 07:25:32;;;;;;;7.75;6.70;;;;;;;;;;5145048;27;20193;-59
2023/07/08 07:27:58;;;;;;;7.70;6.82;;;;;;;;;;5143887;27;20221;-59
2023/07/08 07:30:25;;;;;;;7.38;6.63;;;;;;;;;;5144497;27;20281;-59
2023/07/08 07:32:51;;;;;;;7.60;6.70;;;;;;;;;;5143995;27;20517;-58
2023/07/08 07:35:17;;;;;;;10.43;6.75;;;;;;;;;;5144156;27;20194;-59
2023/07/08 07:37:44;;;;;;;7.90;6.82;;;;;;;;;;5143873;27;20200;-59
2023/07/08 07:40:14;;;;;;;8.27;6.78;;;;;;;;;;5144209;27;20197;-59
2023/07/08 07:42:41;;;;;;;10.00;6.45;;;;;;;;;;5143745;27;20436;-58
2023/07/08 07:45:07;;;;;;;8.82;6.85;;;;;;;;;;5143942;27;20245;-57
2023/07/08 07:47:34;;;;;;;7.63;6.90;;;;;;;;;;5143747;27;20349;-59
2023/07/08 07:50:00;;;;;;;9.35;6.70;;;;;;;;;;5143852;27;20220;-59
2023/07/08 07:52:26;;;;;;;7.78;6.90;;;;;;;;;;5143456;27;20209;-59
2023/07/08 07:54:53;;;;;;;10.52;6.50;;;;;;;;;;5143609;27;20384;-59
2023/07/08 07:57:21;;;;;;;11.43;6.80;;;;;;;;;;5143813;27;20194;-59
2023/07/08 07:59:48;;;;;;;7.97;6.72;;;;;;;;;;5143436;27;20205;-59
2023/07/08 08:02:15;;;;;;;14.18;6.57;;;;;;;;;;5143368;27;20255;-59
2023/07/08 08:04:41;;;;;;;8.05;6.65;;;;;;;;;;5143402;27;20194;-57
2023/07/08 08:07:07;;;;;;;9.45;6.32;;;;;;;;;;5143283;27;20212;-58
2023/07/08 08:09:34;;;;;;;8.80;6.60;;;;;;;;;;5143381;27;20194;-59
2023/07/08 08:12:01;;;;;;;8.40;6.53;;;;;;;;;;5142988;27;20210;-59
2023/07/08 08:14:29;;;;;;;8.90;7.05;;;;;;;;;;5143492;27;20212;-59
2023/07/08 08:16:55;;;;;;;8.63;6.45;;;;;;;;;;5143321;27;20205;-58
2023/07/08 08:19:22;;;;;;;98.30;22.73;;;;;;;;;;5143497;27;20194;-59
2023/07/08 08:21:48;;;;;;;15.60;8.40;;;;;;;;;;5143138;27;20223;-58
2023/07/08 08:24:15;;;;;;;13.35;7.38;;;;;;;;;;5143174;27;20502;-59
2023/07/08 08:26:41;;;;;;;11.05;6.70;;;;;;;;;;5143421;27;20546;-72
2023/07/08 08:29:08;;;;;;;12.88;7.10;;;;;;;;;;5143198;27;20198;-72
2023/07/08 08:31:35;;;;;;;7.68;6.43;;;;;;;;;;5142961;27;20214;-72
2023/07/08 08:34:02;;;;;;;12.48;7.22;;;;;;;;;;5144090;27;20217;-73
2023/07/08 08:36:29;;;;;;;11.90;7.18;;;;;;;;;;5143210;27;20391;-73
2023/07/08 08:38:55;;;;;;;11.70;7.43;;;;;;;;;;5142609;27;20197;-73
2023/07/08 08:41:32;;;;;;;9.70;7.50;;;;;;;;;;5143086;27;20197;-73
2023/07/08 08:43:59;;;;;;;10.45;6.65;;;;;;;;;;5143429;27;20434;-73
2023/07/08 08:46:28;;;;;;;12.02;7.18;;;;;;;;;;5143048;27;20205;-72
2023/07/08 08:48:58;;;;;;;11.65;6.30;;;;;;;;;;5142982;27;20197;-73
2023/07/08 08:51:25;;;;;;;15.27;7.35;;;;;;;;;;5143203;27;20220;-73
2023/07/08 08:53:53;;;;;;;10.60;7.20;;;;;;;;;;5143379;27;20193;-73
2023/07/08 08:56:21;;;;;;;12.85;6.72;;;;;;;;;;5143417;27;20201;-72
2023/07/08 08:58:53;;;;;;;10.55;6.80;;;;;;;;;;5143456;27;20397;-72
2023/07/08 09:01:20;;;;;;;10.68;6.63;;;;;;;;;;5143171;27;20382;-73
2023/07/08 09:03:48;;;;;;;9.55;6.28;;;;;;;;;;5143700;27;20229;-72
2023/07/08 09:06:18;;;;;;;9.60;6.10;;;;;;;;;;5143769;27;20194;-73
2023/07/08 09:08:45;;;;;;;6.95;5.55;;;;;;;;;;5143362;27;20194;-73
2023/07/08 09:11:16;;;;;;;9.70;6.10;;;;;;;;;;5143241;27;20532;-73
2023/07/08 09:13:42;;;;;;;10.52;6.10;;;;;;;;;;5143231;27;20194;-73
2023/07/08 09:16:14;;;;;;;11.05;5.80;;;;;;;;;;5142952;27;20201;-72
2023/07/08 09:18:45;;;;;;;10.07;5.45;;;;;;;;;;5143284;27;20193;-72
2023/07/08 09:21:16;;;;;;;12.02;5.68;;;;;;;;;;5143394;27;20225;-72
2023/07/08 09:23:45;;;;;;;6.97;4.97;;;;;;;;;;5143625;27;20216;-73
2023/07/08 09:26:14;;;;;;;11.07;5.40;;;;;;;;;;5143426;27;20194;-72
2023/07/08 09:28:42;;;;;;;5.55;4.70;;;;;;;;;;5143003;27;20321;-72
2023/07/08 09:31:09;;;;;;;10.05;5.10;;;;;;;;;;5143331;27;20236;-72
2023/07/08 09:33:38;;;;;;;11.15;5.90;;;;;;;;;;5143051;27;20202;-72
2023/07/08 09:36:16;;;;;;;6.32;5.10;;;;;;;;;;5143395;27;20498;-72
2023/07/08 09:38:45;;;;;;;10.48;5.28;;;;;;;;;;5143282;27;20200;-73
2023/07/08 09:41:11;;;;;;;9.10;5.10;;;;;;;;;;5143300;27;20205;-72
2023/07/08 09:43:38;;;;;;;8.93;5.00;;;;;;;;;;5142612;27;20204;-72
2023/07/08 09:46:05;;;;;;;6.05;4.40;;;;;;;;;;5143494;27;20201;-72
2023/07/08 09:48:34;;;;;;;8.00;4.65;;;;;;;;;;5143501;27;20209;-74
2023/07/08 09:51:01;;;;;;;7.13;5.03;;;;;;;;;;5145492;27;20213;-72
2023/07/08 09:53:27;;;;;;;9.05;4.63;;;;;;;;;;5147157;27;20202;-72
2023/07/08 09:55:57;;;;;;;6.97;4.78;;;;;;;;;;5147232;27;20202;-72
2023/07/08 09:58:25;;;;;;;8.05;4.97;;;;;;;;;;5147480;27;20374;-73
2023/07/08 10:00:54;;;;;;;6.85;4.30;;;;;;;;;;5147157;27;20204;-72
2023/07/08 10:03:22;;;;;;;7.10;4.55;;;;;;;;;;5147034;27;20206;-72
2023/07/08 10:05:48;;;;;;;5.72;4.20;;;;;;;;;;5147020;27;20221;-72
2023/07/08 10:08:16;;;;;;;4.70;4.15;;;;;;;;;;5146736;27;20498;-72
2023/07/08 10:10:42;;;;;;;4.45;4.05;;;;;;;;;;5146853;27;20221;-72
2023/07/08 10:13:15;;;;;;;8.20;4.05;;;;;;;;;;5146596;27;20502;-72
2023/07/08 10:15:43;;;;;;;9.90;4.72;;;;;;;;;;5146835;27;20216;-72
2023/07/08 10:18:14;;;;;;;5.88;4.03;;;;;;;;;;5146731;27;20441;-72
2023/07/08 10:20:47;;;;;;;7.63;3.80;;;;;;;;;;5146418;27;20389;-72
2023/07/08 10:23:17;;;;;;;9.73;4.72;;;;;;;;;;5146572;27;20264;-72
2023/07/08 10:25:46;;;;;;;4.88;4.18;;;;;;;;;;5146572;27;20193;-72
2023/07/08 10:28:22;;;;;;;10.55;4.55;;;;;;;;;;5146598;27;20212;-72
2023/07/08 10:30:51;;;;;;;6.90;4.43;;;;;;;;;;5146363;27;20216;-72
2023/07/08 10:33:28;;;;;;;4.25;3.85;;;;;;;;;;5146287;27;20201;-72
2023/07/08 10:36:00;;;;;;;6.28;4.05;;;;;;;;;;5146670;27;20222;-72
2023/07/08 10:38:32;;;;;;;6.75;3.95;;;;;;;;;;5146811;27;20269;-72
2023/07/08 10:41:00;;;;;;;5.80;3.70;;;;;;;;;;5146189;27;20194;-72
2023/07/08 10:43:42;;;;;;;3.20;3.00;;;;;;;;;;5145901;27;20524;-72
2023/07/08 10:46:17;;;;;;;3.97;3.50;;;;;;;;;;5146249;27;20194;-72
2023/07/08 10:48:52;;;;;;;6.60;3.47;;;;;;;;;;5146286;27;20197;-72
2023/07/08 10:51:24;;;;;;;4.35;3.10;;;;;;;;;;5145980;27;20213;-72
2023/07/08 10:53:57;;;;;;;4.43;3.63;;;;;;;;;;5146286;27;20198;-72
2023/07/08 10:56:28;;;;;;;8.23;3.78;;;;;;;;;;5146409;27;20208;-72
2023/07/08 10:59:09;;;;;;;6.50;4.05;;;;;;;;;;5145771;27;20194;-72
2023/07/08 11:01:42;;;;;;;4.07;3.00;;;;;;;;;;5145368;27;20205;-72
2023/07/08 11:04:14;;;;;;;5.50;3.50;;;;;;;;;;5145835;27;20221;-72
2023/07/08 11:06:48;;;;;;;3.35;2.88;;;;;;;;;;5145629;27;20404;-72
2023/07/08 11:09:18;;;;;;;5.38;2.65;;;;;;;;;;5145895;27;20195;-72
2023/07/08 11:11:49;;;;;;;2.35;2.25;;;;;;;;;;5145466;27;20213;-72
2023/07/08 11:14:18;;;;;;;2.95;2.45;;;;;;;;;;5145726;27;20334;-72
2023/07/08 11:16:46;;;;;;;3.22;2.45;;;;;;;;;;5145397;27;20190;-72
2023/07/08 11:19:15;;;;;;;5.25;2.55;;;;;;;;;;5145453;27;20194;-72
2023/07/08 11:21:44;;;;;;;5.03;2.35;;;;;;;;;;5145163;27;20197;-72
2023/07/08 11:24:13;;;;;;;3.13;2.00;;;;;;;;;;5145394;27;20198;-72
2023/07/08 11:26:43;;;;;;;3.83;2.13;;;;;;;;;;5145378;27;20392;-72
2023/07/08 11:29:15;;;;;;;3.42;2.72;;;;;;;;;;5145242;27;20201;-72
2023/07/08 11:31:43;;;;;;;4.18;2.28;;;;;;;;;;5144731;27;20229;-72
2023/07/08 11:34:11;;;;;;;1.90;1.80;;;;;;;;;;5145276;27;20202;-72
2023/07/08 11:36:38;;;;;;;1.90;1.80;;;;;;;;;;5145225;27;20494;-72
2023/07/08 11:39:24;;;;;;;2.38;1.92;;;;;;;;;;5145056;27;20229;-72
2023/07/08 11:41:53;;;;;;;4.03;2.13;;;;;;;;;;5144477;27;20229;-72
2023/07/08 11:44:19;;;;;;;2.83;2.13;;;;;;;;;;5144969;27;20494;-72
2023/07/08 11:46:55;;;;;;;2.08;1.90;;;;;;;;;;5145060;27;20200;-72
2023/07/08 11:49:21;;;;;;;4.53;2.08;;;;;;;;;;5144786;27;20197;-72
2023/07/08 11:51:48;;;;;;;2.58;2.13;;;;;;;;;;5144565;27;20217;-72
2023/07/08 11:54:15;;;;;;;2.35;2.22;;;;;;;;;;5144631;27;20194;-72
2023/07/08 11:56:48;;;;;;;6.43;2.15;;;;;;;;;;5144456;27;20198;-72
2023/07/08 11:59:17;;;;;;;4.60;2.03;;;;;;;;;;5144613;27;20404;-72
2023/07/08 12:01:47;;;;;;;3.60;2.03;;;;;;;;;;5144831;27;20190;-73
2023/07/08 12:04:24;;;;;;;2.20;2.08;;;;;;;;;;5144902;27;20193;-72
2023/07/08 12:07:03;;;;;;;1.95;1.85;;;;;;;;;;5144869;27;20182;-72
2023/07/08 12:09:36;;;;;;;7.95;2.30;;;;;;;;;;5144701;27;20194;-72
2023/07/08 12:12:03;;;;;;;4.63;1.85;;;;;;;;;;5144073;27;20286;-72
2023/07/08 12:14:30;;;;;;;4.20;1.98;;;;;;;;;;5143712;27;20200;-72
2023/07/08 12:16:56;;;;;;;3.20;2.10;;;;;;;;;;5144347;27;20194;-73
2023/07/08 12:19:26;;;;;;;2.03;1.92;;;;;;;;;;5144161;27;20398;-72
2023/07/08 12:21:52;;;;;;;7.53;2.40;;;;;;;;;;5143934;27;20190;-73
2023/07/08 12:24:25;;;;;;;2.80;1.90;;;;;;;;;;5144461;27;20490;-72
2023/07/08 12:26:51;;;;;;;2.22;2.00;;;;;;;;;;5144224;27;20222;-72
2023/07/08 12:29:17;;;;;;;1.98;1.83;;;;;;;;;;5144084;27;20198;-72
2023/07/08 12:31:44;;;;;;;1.90;1.80;;;;;;;;;;5143783;27;20218;-72
2023/07/08 12:34:12;;;;;;;2.80;2.10;;;;;;;;;;5143785;27;20210;-72
2023/07/08 12:36:40;;;;;;;2.20;1.90;;;;;;;;;;5144106;27;20200;-73
2023/07/08 12:39:06;;;;;;;3.30;2.20;;;;;;;;;;5143968;27;20194;-72
2023/07/08 12:41:35;;;;;;;4.90;2.10;;;;;;;;;;5143459;27;20190;-72
2023/07/08 12:44:02;;;;;;;2.35;2.13;;;;;;;;;;5143828;27;20220;-72
2023/07/08 12:46:29;;;;;;;2.65;1.95;;;;;;;;;;5143616;27;20402;-72
2023/07/08 12:48:55;;;;;;;2.65;2.25;;;;;;;;;;5143929;27;20202;-72
2023/07/08 12:51:25;;;;;;;3.00;1.95;;;;;;;;;;5143447;27;20194;-72
2023/07/08 12:53:54;;;;;;;2.78;1.70;;;;;;;;;;5143756;27;20198;-72
2023/07/08 12:56:21;;;;;;;3.30;1.90;;;;;;;;;;5143631;27;20201;-72
2023/07/08 12:58:50;;;;;;;2.45;2.05;;;;;;;;;;5143803;27;20263;-73
2023/07/08 13:01:18;;;;;;;5.35;2.33;;;;;;;;;;5143354;27;20379;-73
2023/07/08 13:03:47;;;;;;;2.55;2.10;;;;;;;;;;5143680;27;20399;-73
2023/07/08 13:06:16;;;;;;;3.25;1.90;;;;;;;;;;5143610;27;20201;-73
2023/07/08 13:08:43;;;;;;;3.63;2.05;;;;;;;;;;5143663;27;20201;-73
2023/07/08 13:11:14;;;;;;;1.88;1.77;;;;;;;;;;5143369;27;20200;-72
2023/07/08 13:13:45;;;;;;;3.53;1.83;;;;;;;;;;5143406;27;20359;-73
2023/07/08 13:16:11;;;;;;;2.88;2.03;;;;;;;;;;5143623;27;20235;-72
2023/07/08 13:18:39;;;;;;;2.38;1.75;;;;;;;;;;5143634;27;20264;-72
2023/07/08 13:21:07;;;;;;;2.47;2.03;;;;;;;;;;5143578;27;20206;-72
2023/07/08 13:23:34;;;;;;;2.88;1.77;;;;;;;;;;5143190;27;20190;-72
2023/07/08 13:26:01;;;;;;;5.53;2.35;;;;;;;;;;5147297;27;20217;-72
2023/07/08 13:28:29;;;;;;;2.33;1.92;;;;;;;;;;5147572;27;20217;-72
2023/07/08 13:30:57;;;;;;;2.97;2.30;;;;;;;;;;5147820;27;20376;-73
2023/07/08 13:33:23;;;;;;;7.80;2.60;;;;;;;;;;5147487;27;20214;-73
2023/07/08 13:35:51;;;;;;;3.00;1.98;;;;;;;;;;5147649;27;20197;-72
2023/07/08 13:38:18;;;;;;;3.90;2.00;;;;;;;;;;5147304;27;20194;-73
2023/07/08 13:40:46;;;;;;;2.50;2.30;;;;;;;;;;5147000;27;20200;-73
2023/07/08 13:43:12;;;;;;;4.30;2.40;;;;;;;;;;5146940;27;20489;-73
2023/07/08 13:45:47;;;;;;;6.90;2.40;;;;;;;;;;5146763;27;20261;-72
2023/07/08 13:48:15;;;;;;;8.10;2.28;;;;;;;;;;5146946;27;20194;-73
2023/07/08 13:50:44;;;;;;;2.28;2.08;;;;;;;;;;5146777;27;20363;-73
2023/07/08 13:53:22;;;;;;;4.60;2.03;;;;;;;;;;5146131;27;20214;-73
2023/07/08 13:55:49;;;;;;;2.38;2.17;;;;;;;;;;5146979;27;20197;-72
2023/07/08 13:58:17;;;;;;;2.67;2.47;;;;;;;;;;5146789;27;20193;-73
2023/07/08 14:00:45;;;;;;;5.28;2.08;;;;;;;;;;5147021;27;20432;-73
2023/07/08 14:03:12;;;;;;;4.05;2.40;;;;;;;;;;5146383;27;20194;-73
2023/07/08 14:05:38;;;;;;;2.60;2.40;;;;;;;;;;5146611;27;20194;-73
2023/07/08 14:08:09;;;;;;;3.55;2.20;;;;;;;;;;5146414;27;20465;-73
2023/07/08 14:10:36;;;;;;;2.45;2.20;;;;;;;;;;5146622;27;20198;-72
2023/07/08 14:13:03;;;;;;;3.28;2.25;;;;;;;;;;5146187;27;20218;-72
2023/07/08 14:15:29;;;;;;;2.42;2.22;;;;;;;;;;5146389;27;20194;-72
2023/07/08 14:17:56;;;;;;;2.90;2.03;;;;;;;;;;5146416;27;20428;-73
2023/07/08 14:20:25;;;;;;;4.15;2.22;;;;;;;;;;5146156;27;20265;-73
2023/07/08 14:22:52;;;;;;;4.32;2.05;;;;;;;;;;5146184;27;20416;-73
2023/07/08 14:25:20;;;;;;;2.60;2.38;;;;;;;;;;5146154;27;20265;-72
2023/07/08 14:27:46;;;;;;;2.88;2.30;;;;;;;;;;5146134;27;20541;-72
2023/07/08 14:30:15;;;;;;;4.03;2.33;;;;;;;;;;5146172;27;20497;-72
2023/07/08 14:32:41;;;;;;;3.70;2.40;;;;;;;;;;5145601;27;20247;-72
2023/07/08 14:35:15;;;;;;;4.35;2.45;;;;;;;;;;5145851;27;20252;-72
2023/07/08 14:37:42;;;;;;;2.45;2.35;;;;;;;;;;5145347;27;20196;-72
2023/07/08 14:40:19;;;;;;;3.47;2.67;;;;;;;;;;5146001;27;20201;-73
2023/07/08 14:42:45;;;;;;;2.60;2.28;;;;;;;;;;5145802;27;20202;-72
2023/07/08 14:45:11;;;;;;;5.03;2.42;;;;;;;;;;5145763;27;20208;-72